Time;durP1;ratioP1;P1;durP2;ratioP2;P2;SDS_P1;SDS_P2;PMS_P1;PMS_P2;Temp;Humidity;BMP_temperature;BMP_pressure;BME280_temperature;BME280_humidity;BME280_pressure;Samples;Min_cycle;Max_cycle;Signal;HPM_P1;HPM_P2
2023/07/23 08:36:08;;;;;;;1.40;0.87;;;17.60;99.90;;;;;;4859004;29;20584;-71
2023/07/23 08:38:35;;;;;;;1.57;0.97;;;17.70;99.90;;;;;;4856427;29;20557;-73
2023/07/23 08:41:03;;;;;;;1.53;0.80;;;17.90;99.90;;;;;;4858257;29;20702;-72
2023/07/23 08:44:18;;;;;;;1.20;0.87;;;17.90;99.90;;;;;;4860583;29;20215;-71
2023/07/23 08:46:46;;;;;;;1.60;0.67;;;18.00;99.90;;;;;;4852570;29;20576;-72
2023/07/23 08:49:13;;;;;;;1.47;0.90;;;18.00;99.90;;;;;;4861825;29;20220;-72
2023/07/23 08:51:46;;;;;;;1.20;0.73;;;17.90;99.90;;;;;;4861508;29;20234;-72
2023/07/23 08:54:15;;;;;;;1.17;0.70;;;18.00;99.90;;;;;;4861844;29;20220;-71
2023/07/23 08:56:43;;;;;;;2.23;0.73;;;17.80;99.90;;;;;;4861434;29;20205;-72
2023/07/23 08:59:10;;;;;;;2.10;1.07;;;17.90;99.90;;;;;;4861642;29;20222;-72
2023/07/23 09:01:39;;;;;;;0.97;0.53;;;17.70;99.90;;;;;;4861506;29;20228;-72
2023/07/23 09:04:07;;;;;;;1.43;0.87;;;17.60;99.90;;;;;;4861246;29;20212;-73
2023/07/23 09:06:34;;;;;;;1.23;0.80;;;17.60;99.90;;;;;;4861554;29;20219;-73
2023/07/23 09:09:07;;;;;;;2.63;0.73;;;17.40;99.90;;;;;;4861445;29;20667;-77
2023/07/23 09:11:34;;;;;;;1.40;0.73;;;17.50;99.90;;;;;;4862779;29;20236;-71
2023/07/23 09:14:02;;;;;;;1.50;0.97;;;17.60;99.90;;;;;;4875691;29;20698;-73
2023/07/23 09:16:30;;;;;;;2.17;1.00;;;17.50;99.90;;;;;;4877743;29;20239;-70
2023/07/23 09:18:56;;;;;;;1.50;1.00;;;17.50;99.90;;;;;;4877884;29;20583;-70
2023/07/23 09:21:24;;;;;;;2.77;1.07;;;17.50;99.90;;;;;;4872102;29;20274;-77
2023/07/23 09:23:52;;;;;;;1.37;1.00;;;17.50;99.90;;;;;;4863344;29;20579;-76
2023/07/23 09:26:22;;;;;;;1.90;1.20;;;17.60;99.90;;;;;;4863802;29;20215;-77
2023/07/23 09:28:52;;;;;;;2.03;1.23;;;17.70;99.90;;;;;;4863751;29;20212;-77
2023/07/23 09:31:31;;;;;;;1.63;1.03;;;17.80;99.90;;;;;;4862319;29;20292;-73
2023/07/23 09:34:00;;;;;;;2.00;1.27;;;17.90;99.90;;;;;;4861166;29;20686;-76
2023/07/23 09:36:28;;;;;;;1.80;1.10;;;17.80;99.90;;;;;;4861311;29;20243;-75
2023/07/23 09:38:59;;;;;;;1.90;1.20;;;17.90;99.90;;;;;;4860585;29;20207;-77
2023/07/23 09:41:33;;;;;;;1.73;1.17;;;18.00;99.90;;;;;;4860112;29;20774;-75
2023/07/23 09:44:06;;;;;;;2.47;1.37;;;18.00;99.90;;;;;;4860241;29;20212;-75
2023/07/23 09:46:34;;;;;;;2.47;1.17;;;18.20;99.90;;;;;;4857818;29;20303;-72
2023/07/23 09:49:01;;;;;;;1.80;1.23;;;18.40;99.90;;;;;;4860472;29;20219;-75
2023/07/23 09:51:28;;;;;;;2.00;1.30;;;18.50;99.90;;;;;;4860243;29;20240;-71
2023/07/23 09:54:00;;;;;;;3.25;1.30;;;18.50;99.90;;;;;;4860390;29;20208;-74
2023/07/23 09:56:30;;;;;;;1.80;1.13;;;18.80;99.90;;;;;;4859926;29;20242;-69
2023/07/23 09:58:58;;;;;;;2.28;1.50;;;18.70;99.90;;;;;;4861205;29;20222;-76
2023/07/23 10:01:26;;;;;;;1.88;1.17;;;18.70;99.90;;;;;;4860856;29;20234;-72
2023/07/23 10:03:54;;;;;;;2.60;1.58;;;18.80;99.90;;;;;;4861783;29;20205;-72
2023/07/23 10:06:23;;;;;;;2.53;1.20;;;19.00;99.90;;;;;;4861336;29;20223;-71
2023/07/23 10:08:51;;;;;;;3.55;1.30;;;18.90;99.90;;;;;;4861236;29;20247;-71
2023/07/23 10:11:19;;;;;;;3.13;1.70;;;19.10;99.90;;;;;;4861580;29;20232;-71
2023/07/23 10:13:48;;;;;;;2.47;1.30;;;19.20;99.90;;;;;;4857439;29;20212;-72
2023/07/23 10:16:19;;;;;;;3.00;1.48;;;19.20;99.90;;;;;;4856338;29;20248;-70
2023/07/23 10:18:47;;;;;;;2.10;1.27;;;19.30;99.90;;;;;;4859680;29;20671;-71
2023/07/23 10:21:15;;;;;;;2.55;1.40;;;19.70;99.90;;;;;;4858717;29;20228;-74
2023/07/23 10:23:42;;;;;;;2.03;1.40;;;20.00;99.90;;;;;;4859050;29;20711;-73
2023/07/23 10:26:20;;;;;;;1.95;1.27;;;20.60;99.90;;;;;;4859034;29;20274;-72
2023/07/23 10:28:49;;;;;;;1.90;1.40;;;21.10;99.90;;;;;;4857460;29;20253;-72
2023/07/23 10:31:21;;;;;;;1.50;1.40;;;21.50;99.90;;;;;;4858422;29;20721;-71
2023/07/23 10:33:49;;;;;;;2.05;1.45;;;21.80;99.90;;;;;;4858633;29;20220;-75
2023/07/23 10:36:17;;;;;;;1.92;1.20;;;21.80;99.90;;;;;;4858039;29;20324;-70
2023/07/23 10:38:44;;;;;;;2.28;1.40;;;21.80;99.90;;;;;;4874442;29;20221;-70
2023/07/23 10:41:11;;;;;;;3.25;1.45;;;21.90;99.90;;;;;;4866939;29;20228;-70
2023/07/23 10:43:39;;;;;;;1.77;1.42;;;21.40;99.90;;;;;;4858246;29;20208;-71
2023/07/23 10:46:09;;;;;;;2.92;1.50;;;21.40;99.90;;;;;;4858634;29;20219;-72
2023/07/23 10:48:48;;;;;;;2.22;1.27;;;21.30;99.90;;;;;;4858480;29;20215;-70
2023/07/23 10:51:16;;;;;;;2.40;1.27;;;21.60;99.90;;;;;;4857894;29;20231;-70
2023/07/23 10:53:55;;;;;;;1.65;1.30;;;21.90;99.90;;;;;;4858258;29;20208;-70
2023/07/23 10:56:30;;;;;;;1.92;1.40;;;22.10;99.90;;;;;;4858280;29;20271;-70
2023/07/23 10:58:58;;;;;;;2.40;1.40;;;22.30;99.90;;;;;;4859634;29;20211;-69
2023/07/23 11:01:28;;;;;;;3.15;1.27;;;22.40;99.90;;;;;;4859815;29;20220;-70
2023/07/23 11:03:58;;;;;;;4.03;1.42;;;22.40;99.90;;;;;;4859340;29;20272;-71
2023/07/23 11:06:29;;;;;;;1.65;1.15;;;22.70;99.90;;;;;;4859553;29;20280;-71
2023/07/23 11:08:58;;;;;;;3.05;1.30;;;22.90;99.90;;;;;;4863488;29;20211;-71
2023/07/23 11:11:37;;;;;;;2.38;1.30;;;23.00;99.90;;;;;;4863790;29;20695;-71
2023/07/23 11:14:17;;;;;;;1.50;1.17;;;22.80;99.90;;;;;;4864295;29;20212;-70
2023/07/23 11:16:45;;;;;;;1.75;1.20;;;22.60;99.90;;;;;;4863257;29;20673;-70
2023/07/23 11:19:13;;;;;;;1.80;1.40;;;22.60;99.90;;;;;;4863715;29;20302;-71
2023/07/23 11:21:51;;;;;;;2.20;1.50;;;22.70;99.90;;;;;;4863086;29;20230;-77
2023/07/23 11:24:19;;;;;;;1.73;1.40;;;23.00;99.90;;;;;;4863425;29;20216;-71
2023/07/23 11:26:46;;;;;;;3.63;1.60;;;23.20;99.90;;;;;;4863019;29;20212;-70
2023/07/23 11:29:13;;;;;;;2.10;1.38;;;23.30;99.90;;;;;;4863318;29;20214;-70
2023/07/23 11:31:41;;;;;;;1.77;1.33;;;23.10;99.90;;;;;;4863422;29;20232;-70
2023/07/23 11:34:09;;;;;;;2.17;1.30;;;23.10;99.90;;;;;;4862693;29;20311;-69
2023/07/23 11:36:38;;;;;;;4.22;1.38;;;23.20;99.90;;;;;;4862524;29;20717;-70
2023/07/23 11:39:06;;;;;;;2.03;1.13;;;23.10;99.90;;;;;;4863164;29;20208;-69
2023/07/23 11:41:35;;;;;;;3.47;1.45;;;23.00;99.90;;;;;;4862641;29;20267;-75
2023/07/23 11:44:04;;;;;;;1.80;1.20;;;22.90;99.90;;;;;;4862836;29;20222;-71
2023/07/23 11:46:32;;;;;;;4.75;1.63;;;22.90;99.90;;;;;;4862698;29;20208;-71
2023/07/23 11:48:59;;;;;;;2.03;1.20;;;22.80;99.90;;;;;;4863535;29;20219;-71
2023/07/23 11:51:28;;;;;;;2.45;1.35;;;22.80;99.90;;;;;;4862631;29;20220;-70
2023/07/23 11:54:02;;;;;;;3.95;1.45;;;22.70;99.90;;;;;;4863120;29;20215;-72
2023/07/23 11:56:30;;;;;;;1.98;1.10;;;22.60;99.90;;;;;;4862586;29;20661;-72
2023/07/23 11:59:02;;;;;;;1.80;1.20;;;22.70;99.90;;;;;;4862919;29;20220;-72
2023/07/23 12:01:29;;;;;;;1.48;1.20;;;22.70;99.90;;;;;;4862636;29;20736;-72
2023/07/23 12:03:59;;;;;;;1.60;1.13;;;22.60;99.90;;;;;;4863267;29;20690;-72
2023/07/23 12:06:29;;;;;;;1.75;1.20;;;22.80;99.90;;;;;;4862223;29;20629;-71
2023/07/23 12:08:56;;;;;;;1.98;1.30;;;23.20;99.90;;;;;;4862529;29;20216;-71
2023/07/23 12:11:26;;;;;;;1.75;1.23;;;23.40;99.90;;;;;;4875219;29;20310;-72
2023/07/23 12:13:54;;;;;;;3.30;1.40;;;23.60;99.90;;;;;;4862533;29;20219;-77
2023/07/23 12:16:36;;;;;;;2.40;1.63;;;23.80;99.90;;;;;;4862307;29;20673;-73
2023/07/23 12:19:04;;;;;;;1.73;1.33;;;24.20;99.90;;;;;;4861975;29;20250;-73
2023/07/23 12:21:34;;;;;;;2.63;1.20;;;24.20;99.90;;;;;;4862374;29;20310;-74
2023/07/23 12:24:12;;;;;;;2.05;1.15;;;24.10;99.90;;;;;;4862991;29;20216;-72
2023/07/23 12:26:39;;;;;;;1.50;1.30;;;24.20;99.90;;;;;;4862324;29;20575;-73
2023/07/23 12:29:06;;;;;;;1.95;1.50;;;24.10;99.90;;;;;;4862035;29;20208;-73
2023/07/23 12:31:39;;;;;;;2.65;1.50;;;24.10;99.90;;;;;;4861935;29;20230;-75
2023/07/23 12:34:06;;;;;;;2.13;1.30;;;24.00;99.90;;;;;;4862141;29;20311;-79
2023/07/23 12:36:34;;;;;;;1.70;1.30;;;24.20;99.90;;;;;;4861711;29;20331;-79
2023/07/23 12:39:01;;;;;;;1.33;1.00;;;24.10;99.90;;;;;;4862161;29;20303;-80
2023/07/23 12:41:27;;;;;;;2.38;1.30;;;24.20;99.90;;;;;;4861826;29;20224;-76
2023/07/23 12:43:54;;;;;;;1.58;1.20;;;24.20;99.90;;;;;;4861886;29;20646;-78
2023/07/23 12:46:21;;;;;;;1.50;1.20;;;24.50;99.90;;;;;;4861548;29;20268;-79
2023/07/23 12:48:49;;;;;;;2.20;1.10;;;24.60;99.90;;;;;;4861729;29;20271;-74
2023/07/23 12:51:16;;;;;;;1.60;1.25;;;24.40;99.90;;;;;;4861364;29;20265;-78
2023/07/23 12:53:44;;;;;;;3.15;1.50;;;24.20;99.90;;;;;;4861849;29;20212;-78
2023/07/23 12:56:11;;;;;;;1.55;1.30;;;24.00;99.90;;;;;;4861555;29;20240;-76
2023/07/23 12:58:37;;;;;;;2.95;1.15;;;23.90;99.90;;;;;;4863912;29;20292;-77
2023/07/23 13:01:04;;;;;;;1.80;1.20;;;23.90;99.90;;;;;;4863524;29;20238;-77
2023/07/23 13:03:33;;;;;;;2.55;1.30;;;23.80;99.90;;;;;;4863889;29;20294;-76
2023/07/23 13:05:59;;;;;;;1.60;1.33;;;23.80;99.90;;;;;;4862096;29;20260;-75
2023/07/23 13:08:26;;;;;;;1.25;1.10;;;23.60;99.90;;;;;;4862807;29;20660;-77
2023/07/23 13:10:54;;;;;;;2.08;1.10;;;23.70;99.90;;;;;;4862558;29;20232;-77
2023/07/23 13:13:21;;;;;;;2.50;1.40;;;23.80;99.90;;;;;;4863742;29;20682;-76
2023/07/23 13:15:48;;;;;;;1.85;0.90;;;24.00;99.90;;;;;;4863105;29;20236;-77
2023/07/23 13:18:15;;;;;;;3.65;1.58;;;24.00;99.90;;;;;;4863248;29;20243;-73
2023/07/23 13:20:42;;;;;;;1.80;1.45;;;24.10;99.90;;;;;;4862701;29;20222;-76
2023/07/23 13:23:09;;;;;;;2.95;1.50;;;24.40;99.90;;;;;;4863495;29;20222;-77
2023/07/23 13:25:36;;;;;;;2.20;1.40;;;24.60;99.90;;;;;;4863197;29;20754;-78
2023/07/23 13:28:04;;;;;;;2.30;1.30;;;24.50;99.90;;;;;;4863686;29;20218;-76
2023/07/23 13:30:31;;;;;;;1.50;1.30;;;24.40;99.90;;;;;;4862423;29;20212;-73
2023/07/23 13:32:58;;;;;;;1.90;1.50;;;24.20;99.90;;;;;;4863285;29;20580;-75
2023/07/23 13:35:26;;;;;;;2.10;1.23;;;24.10;99.90;;;;;;4862657;29;20216;-78
2023/07/23 13:37:53;;;;;;;2.88;1.50;;;23.80;99.90;;;;;;4863176;29;20577;-75
2023/07/23 13:40:20;;;;;;;1.65;1.30;;;24.00;99.90;;;;;;4862748;29;20307;-75
2023/07/23 13:42:46;;;;;;;1.60;1.20;;;24.20;99.90;;;;;;4861550;29;20264;-78
2023/07/23 13:45:15;;;;;;;2.45;1.40;;;24.10;99.90;;;;;;4860858;29;20222;-78
2023/07/23 13:47:42;;;;;;;2.72;1.40;;;24.10;99.90;;;;;;4860958;29;20219;-78
2023/07/23 13:50:10;;;;;;;1.77;1.20;;;24.10;99.90;;;;;;4860978;29;20576;-75
2023/07/23 13:52:37;;;;;;;2.45;1.27;;;24.40;99.90;;;;;;4860883;29;20292;-81
2023/07/23 13:55:04;;;;;;;3.03;1.30;;;24.20;99.90;;;;;;4860708;29;20216;-77
2023/07/23 13:57:31;;;;;;;2.50;1.30;;;24.00;99.90;;;;;;4860893;29;20334;-74
2023/07/23 13:59:58;;;;;;;2.95;1.58;;;23.80;99.90;;;;;;4860808;29;20293;-76
2023/07/23 14:02:26;;;;;;;1.80;1.23;;;23.80;99.90;;;;;;4858798;29;20315;-71
2023/07/23 14:04:53;;;;;;;2.22;1.20;;;23.80;99.90;;;;;;4860631;29;20215;-74
2023/07/23 14:07:20;;;;;;;2.85;1.35;;;23.90;99.90;;;;;;4860339;29;20295;-75
2023/07/23 14:09:47;;;;;;;1.50;1.00;;;23.90;99.90;;;;;;4860609;29;20220;-75
2023/07/23 14:12:14;;;;;;;1.40;1.10;;;24.00;99.90;;;;;;4860123;29;20240;-74
2023/07/23 14:14:41;;;;;;;1.15;0.90;;;24.00;99.90;;;;;;4860486;29;20204;-75
2023/07/23 14:17:07;;;;;;;2.00;0.95;;;24.20;99.90;;;;;;4860459;29;20331;-78
2023/07/23 14:19:36;;;;;;;2.03;1.35;;;24.40;99.90;;;;;;4860155;29;20562;-76
2023/07/23 14:22:03;;;;;;;1.73;1.13;;;24.70;99.90;;;;;;4860148;29;20232;-76
2023/07/23 14:24:29;;;;;;;1.75;0.98;;;24.90;99.90;;;;;;4860590;29;20215;-72
2023/07/23 14:26:56;;;;;;;2.55;1.15;;;25.10;99.90;;;;;;4860240;29;20212;-72
2023/07/23 14:29:23;;;;;;;1.75;1.35;;;24.90;99.90;;;;;;4860125;29;20208;-80
2023/07/23 14:31:50;;;;;;;3.15;1.27;;;24.40;99.90;;;;;;4860492;29;20614;-79
2023/07/23 14:34:17;;;;;;;1.70;1.23;;;24.30;99.90;;;;;;4860197;29;20262;-81
2023/07/23 14:36:45;;;;;;;1.67;1.15;;;24.50;99.90;;;;;;4860532;29;20593;-78
2023/07/23 14:39:12;;;;;;;2.45;1.30;;;24.50;99.90;;;;;;4860596;29;20762;-77
2023/07/23 14:41:38;;;;;;;1.60;1.17;;;24.40;99.90;;;;;;4862111;29;20228;-79
2023/07/23 14:44:06;;;;;;;1.27;1.00;;;24.50;99.90;;;;;;4864401;29;20302;-77
2023/07/23 14:46:32;;;;;;;1.75;1.00;;;24.40;99.90;;;;;;4864365;29;20212;-74
2023/07/23 14:48:59;;;;;;;1.98;1.05;;;24.30;99.90;;;;;;4863243;29;20571;-74
2023/07/23 14:51:26;;;;;;;2.40;1.20;;;24.40;99.90;;;;;;4863312;29;20231;-73
2023/07/23 14:53:54;;;;;;;2.80;1.20;;;24.30;99.90;;;;;;4863503;29;20208;-73
2023/07/23 14:56:21;;;;;;;1.88;1.35;;;24.00;99.90;;;;;;4863370;29;20274;-74
2023/07/23 14:58:48;;;;;;;1.33;0.95;;;23.90;99.90;;;;;;4863562;29;20211;-73
2023/07/23 15:01:14;;;;;;;1.42;0.98;;;24.00;99.90;;;;;;4863381;29;20227;-73
2023/07/23 15:03:41;;;;;;;1.30;0.82;;;24.10;99.90;;;;;;4864316;29;20219;-72
2023/07/23 15:06:08;;;;;;;1.60;0.93;;;24.10;99.90;;;;;;4863925;29;20262;-73
2023/07/23 15:08:35;;;;;;;1.40;0.85;;;23.90;99.90;;;;;;4863804;29;20216;-72
2023/07/23 15:11:03;;;;;;;1.75;0.95;;;23.90;99.90;;;;;;4863673;29;20236;-73
2023/07/23 15:13:30;;;;;;;1.10;0.82;;;23.70;99.90;;;;;;4863542;29;20222;-74
2023/07/23 15:15:58;;;;;;;1.65;0.88;;;23.40;99.90;;;;;;4863384;29;20221;-73
2023/07/23 15:18:26;;;;;;;1.45;0.93;;;23.50;99.90;;;;;;4863612;29;20242;-73
2023/07/23 15:20:53;;;;;;;2.15;1.00;;;23.60;99.90;;;;;;4863554;29;20235;-74
2023/07/23 15:23:20;;;;;;;1.13;0.82;;;23.50;99.90;;;;;;4863753;29;20212;-74
2023/07/23 15:25:48;;;;;;;1.20;1.00;;;23.50;99.90;;;;;;4863359;29;20216;-75
2023/07/23 15:28:18;;;;;;;1.00;0.80;;;23.50;99.90;;;;;;4863335;29;20215;-73
2023/07/23 15:30:45;;;;;;;1.38;0.80;;;23.40;99.90;;;;;;4863199;29;20216;-77
2023/07/23 15:33:12;;;;;;;1.27;0.73;;;23.30;99.90;;;;;;4863379;29;20303;-73
2023/07/23 15:35:39;;;;;;;1.30;0.90;;;23.00;99.90;;;;;;4862967;29;20223;-73
2023/07/23 15:38:06;;;;;;;1.20;0.70;;;22.90;99.90;;;;;;4863076;29;20243;-73
2023/07/23 15:40:33;;;;;;;1.10;0.77;;;22.90;99.90;;;;;;4863358;29;20212;-73
2023/07/23 15:43:00;;;;;;;2.25;1.05;;;23.00;99.90;;;;;;4863182;29;20322;-74
2023/07/23 15:45:28;;;;;;;1.40;0.80;;;23.10;99.90;;;;;;4863361;29;20214;-75
2023/07/23 15:47:55;;;;;;;1.15;1.00;;;23.10;99.90;;;;;;4863298;29;20216;-73
2023/07/23 15:50:22;;;;;;;1.10;0.60;;;23.10;99.90;;;;;;4863026;29;20208;-73
2023/07/23 15:52:48;;;;;;;3.72;1.92;;;23.20;99.90;;;;;;4862194;29;20246;-73
2023/07/23 15:55:16;;;;;;;1.17;0.80;;;23.10;99.90;;;;;;4863275;29;20759;-73
2023/07/23 15:57:43;;;;;;;1.30;0.65;;;23.00;99.90;;;;;;4862884;29;20243;-73
2023/07/23 16:00:10;;;;;;;1.27;0.80;;;23.00;99.90;;;;;;4862947;29;20576;-74
2023/07/23 16:02:38;;;;;;;1.52;0.85;;;22.90;99.90;;;;;;4862965;29;20227;-74
2023/07/23 16:05:06;;;;;;;1.40;1.30;;;22.80;99.90;;;;;;4863071;29;20212;-74
2023/07/23 16:07:33;;;;;;;2.50;0.90;;;22.60;99.90;;;;;;4862917;29;20575;-73
2023/07/23 16:09:59;;;;;;;0.95;0.77;;;22.60;99.90;;;;;;4862534;29;20215;-78
2023/07/23 16:12:26;;;;;;;1.42;0.80;;;22.30;99.90;;;;;;4862562;29;20328;-75
2023/07/23 16:14:53;;;;;;;2.63;1.00;;;22.30;99.90;;;;;;4862914;29;20556;-74
2023/07/23 16:17:20;;;;;;;0.90;0.70;;;22.20;99.90;;;;;;4863180;29;20235;-74
2023/07/23 16:19:49;;;;;;;1.27;0.80;;;22.10;99.90;;;;;;4862427;29;20311;-73
2023/07/23 16:22:15;;;;;;;0.90;0.73;;;22.00;99.90;;;;;;4862349;29;20648;-77
2023/07/23 16:24:42;;;;;;;1.38;0.80;;;21.80;99.90;;;;;;4862663;29;20291;-74
2023/07/23 16:27:09;;;;;;;1.05;0.80;;;21.50;99.90;;;;;;4862641;29;20226;-78
2023/07/23 16:29:40;;;;;;;2.35;0.90;;;21.20;99.90;;;;;;4862252;29;20219;-76
2023/07/23 16:32:08;;;;;;;3.53;1.00;;;21.00;99.90;;;;;;4862395;29;20240;-73
2023/07/23 16:34:35;;;;;;;1.52;1.15;;;20.90;99.90;;;;;;4862243;29;20215;-77
2023/07/23 16:37:07;;;;;;;1.83;1.20;;;20.80;99.90;;;;;;4862078;29;20703;-73
2023/07/23 16:39:35;;;;;;;1.42;0.80;;;20.50;99.90;;;;;;4862501;29;20208;-79
2023/07/23 16:42:03;;;;;;;0.90;0.60;;;20.60;99.90;;;;;;4862303;29;20236;-77
2023/07/23 16:44:33;;;;;;;1.17;0.80;;;20.50;99.90;;;;;;4862477;29;20218;-77
2023/07/23 16:47:00;;;;;;;1.40;0.90;;;20.50;99.90;;;;;;4862479;29;20222;-75
2023/07/23 16:49:27;;;;;;;1.48;0.90;;;20.40;99.90;;;;;;4862428;29;20228;-76
2023/07/23 16:51:54;;;;;;;1.27;1.02;;;20.30;99.90;;;;;;4862347;29;20322;-74
2023/07/23 16:54:22;;;;;;;2.45;1.00;;;20.20;99.90;;;;;;4862483;29;20218;-74
2023/07/23 16:56:49;;;;;;;1.48;0.90;;;20.30;99.90;;;;;;4862017;29;20299;-75
2023/07/23 16:59:16;;;;;;;1.92;0.88;;;20.30;99.90;;;;;;4862184;29;20299;-74
2023/07/23 17:01:42;;;;;;;3.25;1.13;;;20.40;99.90;;;;;;4861988;29;20231;-73
2023/07/23 17:04:09;;;;;;;1.20;0.90;;;20.30;99.90;;;;;;4861530;29;20208;-77
2023/07/23 17:06:36;;;;;;;1.27;0.90;;;20.20;99.90;;;;;;4862525;29;20212;-74
2023/07/23 17:09:03;;;;;;;1.30;0.95;;;20.20;99.90;;;;;;4871056;29;20216;-75
2023/07/23 17:11:31;;;;;;;1.13;0.77;;;20.10;99.90;;;;;;4870456;29;20228;-78
2023/07/23 17:13:58;;;;;;;1.92;1.10;;;19.90;99.90;;;;;;4870385;29;20239;-73
2023/07/23 17:16:25;;;;;;;3.13;0.90;;;19.90;99.90;;;;;;4871150;29;20267;-78
2023/07/23 17:18:52;;;;;;;2.33;0.90;;;19.90;99.90;;;;;;4867933;29;20319;-82
2023/07/23 17:21:18;;;;;;;1.75;1.02;;;19.80;99.90;;;;;;4865753;29;20238;-78
2023/07/23 17:23:45;;;;;;;2.15;0.98;;;19.80;99.90;;;;;;4865182;29;20226;-79
2023/07/23 17:26:20;;;;;;;1.40;0.90;;;19.70;99.90;;;;;;5132890;27;21143;-73
2023/07/23 17:28:46;;;;;;;1.45;1.05;;;19.70;99.90;;;;;;5131614;28;20630;-80
2023/07/23 17:31:13;;;;;;;1.23;0.70;;;19.60;99.90;;;;;;5130959;28;20307;-80
2023/07/23 17:33:40;;;;;;;2.05;1.20;;;19.60;99.90;;;;;;5131055;27;20677;-77
2023/07/23 17:36:07;;;;;;;3.05;0.95;;;19.70;99.90;;;;;;5131125;27;20240;-79
2023/07/23 17:38:34;;;;;;;1.85;1.20;;;19.70;99.90;;;;;;5132123;27;20256;-75
2023/07/23 17:41:01;;;;;;;1.88;1.08;;;19.70;99.90;;;;;;5132473;27;20225;-77
2023/07/23 17:43:29;;;;;;;2.38;1.13;;;19.70;99.90;;;;;;5131754;27;20205;-73
2023/07/23 17:45:56;;;;;;;1.95;1.15;;;19.60;99.90;;;;;;5131674;27;20319;-71
2023/07/23 17:48:23;;;;;;;1.10;0.80;;;19.60;99.90;;;;;;5134119;27;20239;-72
2023/07/23 17:50:50;;;;;;;2.03;1.10;;;19.60;99.90;;;;;;5134587;27;20649;-72
2023/07/23 17:53:20;;;;;;;1.58;1.02;;;19.70;99.90;;;;;;5133472;27;20205;-72
2023/07/23 17:55:48;;;;;;;2.03;1.10;;;19.60;99.90;;;;;;5133656;27;20204;-71
2023/07/23 17:58:15;;;;;;;1.40;1.17;;;19.60;99.90;;;;;;5132603;27;20240;-72
2023/07/23 18:00:44;;;;;;;2.53;1.30;;;19.60;99.90;;;;;;5132768;27;20201;-74
2023/07/23 18:03:11;;;;;;;2.80;0.82;;;19.60;99.90;;;;;;5131330;27;20217;-70
2023/07/23 18:05:38;;;;;;;2.05;1.08;;;19.70;99.90;;;;;;5130993;27;20324;-72
2023/07/23 18:08:05;;;;;;;1.10;0.93;;;19.60;99.90;;;;;;5131002;27;20203;-71
2023/07/23 18:10:32;;;;;;;2.58;1.30;;;19.60;99.90;;;;;;5131314;27;20201;-72
2023/07/23 18:12:58;;;;;;;2.72;1.60;;;19.50;99.90;;;;;;5131150;27;20205;-73
2023/07/23 18:15:25;;;;;;;2.40;1.40;;;19.50;99.90;;;;;;5131518;27;20255;-73
2023/07/23 18:17:53;;;;;;;3.97;1.60;;;19.50;99.90;;;;;;5131403;27;20223;-72
2023/07/23 18:20:20;;;;;;;3.47;1.20;;;19.50;99.90;;;;;;5131111;27;20288;-72
2023/07/23 18:22:47;;;;;;;2.30;1.30;;;19.50;99.90;;;;;;5131157;27;20217;-72
2023/07/23 18:25:14;;;;;;;1.60;0.95;;;19.50;99.90;;;;;;5130458;27;20260;-72
2023/07/23 18:27:41;;;;;;;2.38;1.17;;;19.40;99.90;;;;;;5130497;27;20287;-73
2023/07/23 18:30:11;;;;;;;2.42;0.80;;;19.30;99.90;;;;;;5130366;27;20211;-73
2023/07/23 18:32:38;;;;;;;2.50;0.80;;;19.30;99.90;;;;;;5130549;27;20225;-73
2023/07/23 18:35:07;;;;;;;1.45;0.70;;;19.30;99.90;;;;;;5130783;27;20295;-72
2023/07/23 18:37:34;;;;;;;1.70;0.70;;;19.20;99.90;;;;;;5117975;27;20202;-72
2023/07/23 18:40:01;;;;;;;1.40;0.50;;;19.10;99.90;;;;;;5116816;28;20205;-72
2023/07/23 18:42:28;;;;;;;0.55;0.40;;;19.00;99.90;;;;;;5116923;28;20313;-72
2023/07/23 18:44:57;;;;;;;1.20;0.50;;;18.90;99.90;;;;;;5117580;28;20316;-72
2023/07/23 18:47:23;;;;;;;1.05;0.40;;;18.80;99.90;;;;;;5117398;28;20201;-73
2023/07/23 18:49:50;;;;;;;1.40;0.52;;;18.80;99.90;;;;;;5117131;28;20292;-73
2023/07/23 18:52:19;;;;;;;1.70;0.50;;;18.80;99.90;;;;;;5117109;28;20226;-72
2023/07/23 18:54:45;;;;;;;0.90;0.50;;;18.80;99.90;;;;;;5116979;28;20205;-73
2023/07/23 18:57:12;;;;;;;0.77;0.47;;;18.70;99.90;;;;;;5116851;28;20201;-72
2023/07/23 18:59:39;;;;;;;1.00;0.50;;;18.70;99.90;;;;;;5117042;28;20201;-73
2023/07/23 19:02:06;;;;;;;0.83;0.40;;;18.60;99.90;;;;;;5116663;28;20312;-73
2023/07/23 19:04:40;;;;;;;1.03;0.53;;;18.60;99.90;;;;;;5116885;28;20233;-72
2023/07/23 19:07:08;;;;;;;1.27;0.50;;;18.60;99.90;;;;;;5116958;28;20565;-73
2023/07/23 19:09:38;;;;;;;1.15;0.52;;;18.50;99.90;;;;;;5116704;28;20206;-73
2023/07/23 19:12:06;;;;;;;0.83;0.40;;;18.50;99.90;;;;;;5116616;28;20232;-72
2023/07/23 19:14:36;;;;;;;1.00;0.47;;;18.60;99.90;;;;;;5116350;28;20209;-73
2023/07/23 19:17:04;;;;;;;0.60;0.30;;;18.60;99.90;;;;;;5116399;28;20232;-74
2023/07/23 19:19:33;;;;;;;1.42;0.60;;;18.60;99.90;;;;;;5116785;28;20206;-73
2023/07/23 19:22:02;;;;;;;2.00;0.50;;;18.60;99.90;;;;;;5116232;28;20225;-73
2023/07/23 19:24:30;;;;;;;1.00;0.50;;;18.60;99.90;;;;;;5116434;28;20209;-73
2023/07/23 19:26:59;;;;;;;0.52;0.40;;;18.60;99.90;;;;;;5116379;28;20194;-73
2023/07/23 19:29:27;;;;;;;1.00;0.50;;;18.60;99.90;;;;;;5116196;28;20208;-73
2023/07/23 19:31:57;;;;;;;1.35;0.40;;;18.70;99.90;;;;;;5116182;28;20226;-72
2023/07/23 19:34:25;;;;;;;1.00;0.55;;;18.60;99.90;;;;;;5116029;28;20213;-73
2023/07/23 19:36:51;;;;;;;1.17;0.80;;;18.60;99.90;;;;;;5116370;28;20237;-74
2023/07/23 19:39:18;;;;;;;1.75;0.60;;;18.60;99.90;;;;;;5116844;28;20209;-73
2023/07/23 19:41:46;;;;;;;0.93;0.75;;;18.60;99.90;;;;;;5115979;28;20249;-72
2023/07/23 19:44:15;;;;;;;1.73;0.75;;;18.60;99.90;;;;;;5115978;28;20206;-73
2023/07/23 19:46:45;;;;;;;1.05;0.68;;;18.60;99.90;;;;;;5116377;28;20236;-73
2023/07/23 19:49:15;;;;;;;0.80;0.60;;;18.70;99.90;;;;;;5115359;28;20606;-72
2023/07/23 19:51:42;;;;;;;3.03;0.80;;;18.70;99.90;;;;;;5116596;28;20234;-72
2023/07/23 19:54:09;;;;;;;1.63;0.70;;;18.60;99.90;;;;;;5117942;28;20209;-77
2023/07/23 19:56:36;;;;;;;0.83;0.63;;;18.60;99.90;;;;;;5118422;28;20201;-77
2023/07/23 19:59:04;;;;;;;1.50;0.70;;;18.60;99.90;;;;;;5118713;28;20563;-75
2023/07/23 20:01:32;;;;;;;1.33;0.80;;;18.60;99.90;;;;;;5117766;28;20225;-74
2023/07/23 20:03:59;;;;;;;3.50;1.55;;;18.60;99.90;;;;;;5117217;28;20229;-73
2023/07/23 20:06:25;;;;;;;2.85;0.70;;;18.60;99.90;;;;;;5118582;28;20236;-73
2023/07/23 20:08:52;;;;;;;1.00;0.80;;;18.60;99.90;;;;;;5117774;28;20205;-78
2023/07/23 20:11:19;;;;;;;1.40;0.65;;;18.70;99.90;;;;;;5118084;27;20285;-78
2023/07/23 20:13:46;;;;;;;1.90;0.82;;;18.70;99.90;;;;;;5118590;28;20638;-75
2023/07/23 20:16:13;;;;;;;2.15;1.33;;;18.70;99.90;;;;;;5120337;28;20210;-74
2023/07/23 20:18:41;;;;;;;1.35;0.80;;;18.70;99.90;;;;;;5118677;28;20664;-75
2023/07/23 20:21:08;;;;;;;1.75;0.75;;;18.70;99.90;;;;;;5118229;28;20887;-74
2023/07/23 20:23:35;;;;;;;1.63;0.82;;;18.70;99.90;;;;;;5117535;28;20240;-74
2023/07/23 20:26:02;;;;;;;2.92;0.88;;;18.80;99.90;;;;;;5118045;28;20251;-77
2023/07/23 20:28:29;;;;;;;1.63;0.90;;;18.70;99.90;;;;;;5117996;28;20201;-78
2023/07/23 20:30:57;;;;;;;1.48;0.82;;;18.80;99.90;;;;;;5125337;22;20277;-74
2023/07/23 20:33:24;;;;;;;2.15;0.70;;;18.70;99.90;;;;;;5013545;28;20213;-76
2023/07/23 20:35:54;;;;;;;1.27;0.88;;;18.70;99.90;;;;;;5013433;28;20656;-76
2023/07/23 20:38:22;;;;;;;1.15;0.70;;;18.60;99.90;;;;;;5013497;28;20202;-76
2023/07/23 20:40:50;;;;;;;1.05;0.60;;;18.60;99.90;;;;;;5009308;28;20272;-78
